createdAt,value
2022-11-11T00:00:51.388Z,1009.41
2022-11-11T00:01:51.412Z,1009.36
2022-11-11T00:02:51.428Z,1009.48
2022-11-11T00:03:51.377Z,1009.51
2022-11-11T00:04:51.366Z,1009.49
2022-11-11T00:05:51.374Z,1009.58
2022-11-11T00:06:51.409Z,1009.56
2022-11-11T00:07:51.332Z,1009.62
2022-11-11T00:08:51.320Z,1009.61
2022-11-11T00:09:51.319Z,1009.55
2022-11-11T00:10:51.320Z,1009.58
2022-11-11T00:11:51.414Z,1009.59
2022-11-11T00:12:51.294Z,1009.60
2022-11-11T00:13:51.302Z,1009.57
2022-11-11T00:14:51.276Z,1009.55
2022-11-11T00:15:51.268Z,1009.56
2022-11-11T00:16:51.298Z,1009.51
2022-11-11T00:17:51.301Z,1009.53
2022-11-11T00:18:51.287Z,1009.43
2022-11-11T00:19:51.277Z,1009.47
2022-11-11T00:20:51.274Z,1009.50
2022-11-11T00:21:51.257Z,1009.54
2022-11-11T00:22:51.240Z,1009.55
2022-11-11T00:23:51.221Z,1009.58
2022-11-11T00:24:51.255Z,1009.59
2022-11-11T00:25:51.333Z,1009.57
2022-11-11T00:26:51.253Z,1009.64
2022-11-11T00:27:51.258Z,1009.64
2022-11-11T00:28:51.206Z,1009.63
2022-11-11T00:29:51.203Z,1009.70
2022-11-11T00:30:51.174Z,1009.67
2022-11-11T00:31:51.221Z,1009.68
2022-11-11T00:32:51.137Z,1009.72
2022-11-11T00:33:51.137Z,1009.67
2022-11-11T00:34:51.175Z,1009.75
2022-11-11T00:35:51.116Z,1009.71
2022-11-11T00:36:51.202Z,1009.78
2022-11-11T00:37:51.155Z,1009.70
2022-11-11T00:38:51.121Z,1009.71
2022-11-11T00:39:51.086Z,1009.73
2022-11-11T00:40:51.077Z,1009.69
2022-11-11T00:41:51.148Z,1009.66
2022-11-11T00:42:51.126Z,1009.64
2022-11-11T00:43:51.126Z,1009.62
2022-11-11T00:44:51.076Z,1009.63
2022-11-11T00:45:51.114Z,1009.66
2022-11-11T00:46:51.060Z,1009.67
2022-11-11T00:47:51.028Z,1009.62
2022-11-11T00:48:51.075Z,1009.67
2022-11-11T00:49:51.004Z,1009.71
2022-11-11T00:50:51.066Z,1009.71
2022-11-11T00:51:51.018Z,1009.67
2022-11-11T00:52:50.984Z,1009.61
2022-11-11T00:53:51.037Z,1009.63
2022-11-11T00:54:51.002Z,1009.65
2022-11-11T00:55:51.014Z,1009.59
2022-11-11T00:56:51.011Z,1009.55
2022-11-11T00:57:50.990Z,1009.58
2022-11-11T00:58:50.991Z,1009.60
2022-11-11T00:59:51.112Z,1009.50
2022-11-11T01:00:50.933Z,1009.56
2022-11-11T01:01:51.073Z,1009.53
2022-11-11T01:02:50.950Z,1009.49
2022-11-11T01:03:50.931Z,1009.53
2022-11-11T01:04:50.951Z,1009.55
2022-11-11T01:05:50.905Z,1009.61
2022-11-11T01:06:51.098Z,1009.59
2022-11-11T01:07:50.992Z,1009.63
2022-11-11T01:08:50.945Z,1009.65
2022-11-11T01:09:50.875Z,1009.62
2022-11-11T01:10:50.869Z,1009.60
2022-11-11T01:11:50.952Z,1009.63
2022-11-11T01:12:50.849Z,1009.59
2022-11-11T01:13:50.874Z,1009.54
2022-11-11T01:14:50.889Z,1009.59
2022-11-11T01:15:51.063Z,1009.58
2022-11-11T01:16:50.834Z,1009.55
2022-11-11T01:17:50.797Z,1009.55
2022-11-11T01:18:50.817Z,1009.44
2022-11-11T01:19:50.889Z,1009.44
2022-11-11T01:20:50.785Z,1009.41
2022-11-11T01:21:50.812Z,1009.34
2022-11-11T01:22:50.828Z,1009.33
2022-11-11T01:23:51.896Z,1009.35
2022-11-11T01:24:50.753Z,1009.29
2022-11-11T01:25:50.738Z,1009.30
2022-11-11T01:26:50.776Z,1009.29
2022-11-11T01:27:50.785Z,1009.25
2022-11-11T01:28:50.726Z,1009.23
2022-11-11T01:29:50.702Z,1009.22
2022-11-11T01:30:50.809Z,1009.35
2022-11-11T01:31:50.829Z,1009.33
2022-11-11T01:32:50.801Z,1009.34
2022-11-11T01:33:50.720Z,1009.36
2022-11-11T01:34:50.674Z,1009.28
2022-11-11T01:35:50.771Z,1009.33
2022-11-11T01:36:50.787Z,1009.31
2022-11-11T01:37:50.693Z,1009.35
2022-11-11T01:38:50.646Z,1009.31
2022-11-11T01:39:50.630Z,1009.38
2022-11-11T01:40:50.778Z,1009.35
2022-11-11T01:41:50.687Z,1009.33
2022-11-11T01:42:50.641Z,1009.36
2022-11-11T01:43:50.619Z,1009.38
2022-11-11T01:44:50.608Z,1009.43
2022-11-11T01:45:50.677Z,1009.39
2022-11-11T01:46:50.597Z,1009.39
2022-11-11T01:48:16.611Z,1009.43
2022-11-11T01:48:52.572Z,1009.45
2022-11-11T01:49:50.657Z,1009.46
2022-11-11T01:50:50.544Z,1009.51
2022-11-11T01:51:50.689Z,1009.52
2022-11-11T01:52:50.564Z,1009.58
2022-11-11T01:53:50.565Z,1009.49
2022-11-11T01:54:50.611Z,1009.47
2022-11-11T01:55:50.648Z,1009.58
2022-11-11T01:56:50.503Z,1009.51
2022-11-11T01:57:50.670Z,1009.63
2022-11-11T01:58:50.488Z,1009.51
2022-11-11T01:59:50.664Z,1009.64
2022-11-11T02:00:50.595Z,1009.56
2022-11-11T02:01:50.555Z,1009.63
2022-11-11T02:02:50.739Z,1009.56
2022-11-11T02:03:50.652Z,1009.67
2022-11-11T02:04:50.614Z,1009.64
2022-11-11T02:05:50.607Z,1009.59
2022-11-11T02:06:50.504Z,1009.60
2022-11-11T02:07:50.503Z,1009.58
2022-11-11T02:08:50.526Z,1009.57
2022-11-11T02:09:50.398Z,1009.54
2022-11-11T02:10:50.429Z,1009.62
2022-11-11T02:11:50.523Z,1009.63
2022-11-11T02:12:50.551Z,1009.66
2022-11-11T02:13:50.379Z,1009.65
2022-11-11T02:14:50.519Z,1009.61
2022-11-11T02:15:50.365Z,1009.65
2022-11-11T02:16:50.456Z,1009.59
2022-11-11T02:17:50.471Z,1009.57
2022-11-11T02:18:50.382Z,1009.67
2022-11-11T02:19:50.491Z,1009.66
2022-11-11T02:20:50.449Z,1009.64
2022-11-11T02:21:50.466Z,1009.67
2022-11-11T02:22:50.335Z,1009.65
2022-11-11T02:23:50.307Z,1009.64
2022-11-11T02:24:50.455Z,1009.69
2022-11-11T02:25:50.377Z,1009.73
2022-11-11T02:26:54.196Z,1009.67
2022-11-11T02:27:52.420Z,1009.75
2022-11-11T02:28:50.296Z,1009.74
2022-11-11T02:29:50.285Z,1009.73
2022-11-11T02:30:50.252Z,1009.76
2022-11-11T02:31:50.230Z,1009.76
2022-11-11T02:32:50.353Z,1009.76
2022-11-11T02:33:50.278Z,1009.76
2022-11-11T02:34:50.341Z,1009.75
2022-11-11T02:35:50.433Z,1009.78
2022-11-11T02:36:50.308Z,1009.85
2022-11-11T02:37:50.329Z,1009.79
2022-11-11T02:38:50.219Z,1009.81
2022-11-11T02:40:03.150Z,1009.85
2022-11-11T02:40:52.286Z,1009.85
2022-11-11T02:41:50.161Z,1009.75
2022-11-11T02:42:50.321Z,1009.79
2022-11-11T02:43:50.226Z,1009.80
2022-11-11T02:44:50.356Z,1009.83
2022-11-11T02:45:50.202Z,1009.71
2022-11-11T02:46:50.307Z,1009.78
2022-11-11T02:47:50.231Z,1009.80
2022-11-11T02:48:50.138Z,1009.78
2022-11-11T02:49:50.136Z,1009.75
2022-11-11T02:50:50.151Z,1009.76
2022-11-11T02:51:51.151Z,1009.74
2022-11-11T02:52:50.115Z,1009.76
2022-11-11T02:53:50.205Z,1009.74
2022-11-11T02:54:50.082Z,1009.71
2022-11-11T02:55:50.093Z,1009.72
2022-11-11T02:56:50.088Z,1009.61
2022-11-11T02:57:50.249Z,1009.56
2022-11-11T02:58:50.065Z,1009.56
2022-11-11T02:59:50.073Z,1009.52
2022-11-11T03:00:50.081Z,1009.55
2022-11-11T03:01:50.063Z,1009.64
2022-11-11T03:02:50.105Z,1009.60
2022-11-11T03:03:50.008Z,1009.55
2022-11-11T03:04:49.987Z,1009.59
2022-11-11T03:05:50.172Z,1009.60
2022-11-11T03:06:50.106Z,1009.65
2022-11-11T03:07:50.133Z,1009.70
2022-11-11T03:08:50.154Z,1009.68
2022-11-11T03:09:50.196Z,1009.74
2022-11-11T03:10:49.982Z,1009.71
2022-11-11T03:11:50.113Z,1009.69
2022-11-11T03:12:49.916Z,1009.71
2022-11-11T03:13:50.134Z,1009.77
2022-11-11T03:14:50.048Z,1009.77
2022-11-11T03:15:49.892Z,1009.77
2022-11-11T03:16:50.039Z,1009.71
2022-11-11T03:17:50.070Z,1009.75
2022-11-11T03:18:50.127Z,1009.80
2022-11-11T03:19:49.864Z,1009.79
2022-11-11T03:20:49.859Z,1009.84
2022-11-11T03:22:55.008Z,1009.85
2022-11-11T03:23:50.953Z,1009.86
2022-11-11T03:24:49.839Z,1009.88
2022-11-11T03:25:52.155Z,1009.91
2022-11-11T03:26:49.806Z,1009.87
2022-11-11T03:27:49.810Z,1009.94
2022-11-11T03:28:49.825Z,1009.89
2022-11-11T03:29:49.789Z,1009.96
2022-11-11T03:30:49.786Z,1009.93
2022-11-11T03:31:49.794Z,1009.92
2022-11-11T03:32:49.769Z,1009.85
2022-11-11T03:33:49.803Z,1009.90
2022-11-11T03:34:49.769Z,1009.86
2022-11-11T03:35:49.771Z,1009.82
2022-11-11T03:36:49.748Z,1009.87
2022-11-11T03:37:49.739Z,1009.85
2022-11-11T03:38:49.756Z,1009.89
2022-11-11T03:39:49.793Z,1009.85
2022-11-11T03:40:49.715Z,1009.86
2022-11-11T03:41:49.706Z,1009.81
2022-11-11T03:42:49.703Z,1009.85
2022-11-11T03:43:49.699Z,1009.83
2022-11-11T03:44:49.711Z,1009.87
2022-11-11T03:45:49.680Z,1009.84
2022-11-11T03:46:49.667Z,1009.78
2022-11-11T03:47:50.531Z,1009.72
2022-11-11T03:48:49.651Z,1009.82
2022-11-11T03:49:49.684Z,1009.83
2022-11-11T03:50:49.680Z,1009.84
2022-11-11T03:51:49.629Z,1009.81
2022-11-11T03:52:49.617Z,1009.84
2022-11-11T03:53:49.611Z,1009.82
2022-11-11T03:54:49.635Z,1009.84
2022-11-11T03:55:49.674Z,1009.89
2022-11-11T03:56:49.593Z,1009.89
2022-11-11T03:57:49.595Z,1009.99
2022-11-11T03:58:49.577Z,1009.94
2022-11-11T03:59:49.609Z,1009.97
2022-11-11T04:00:49.564Z,1010.00
2022-11-11T04:01:49.583Z,1009.99
2022-11-11T04:02:49.553Z,1010.01
2022-11-11T04:03:49.545Z,1009.96
2022-11-11T04:04:49.564Z,1009.98
2022-11-11T04:05:49.532Z,1010.02
2022-11-11T04:06:49.580Z,1010.00
2022-11-11T04:07:49.518Z,1009.98
2022-11-11T04:08:49.515Z,1009.97
2022-11-11T04:09:49.530Z,1010.03
2022-11-11T04:10:49.498Z,1010.03
2022-11-11T04:11:49.559Z,1010.05
2022-11-11T04:12:49.479Z,1010.06
2022-11-11T04:13:49.465Z,1010.04
2022-11-11T04:14:49.484Z,1010.09
2022-11-11T04:15:49.461Z,1010.07
2022-11-11T04:16:49.446Z,1010.01
2022-11-11T04:17:49.430Z,1010.06
2022-11-11T04:18:49.425Z,1010.03
2022-11-11T04:19:49.439Z,1009.99
2022-11-11T04:20:49.412Z,1009.98
2022-11-11T04:21:49.408Z,1009.99
2022-11-11T04:22:49.395Z,1009.90
2022-11-11T04:23:49.403Z,1009.96
2022-11-11T04:24:49.399Z,1009.95
2022-11-11T04:25:49.374Z,1009.80
2022-11-11T04:26:49.364Z,1009.92
2022-11-11T04:27:49.435Z,1009.88
2022-11-11T04:28:49.353Z,1009.88
2022-11-11T04:29:49.377Z,1009.87
2022-11-11T04:30:49.338Z,1009.89
2022-11-11T04:31:49.327Z,1009.91
2022-11-11T04:32:49.324Z,1009.98
2022-11-11T04:33:49.354Z,1010.04
2022-11-11T04:34:49.375Z,1009.96
2022-11-11T04:35:49.303Z,1010.01
2022-11-11T04:36:49.298Z,1010.00
2022-11-11T04:37:49.282Z,1010.07
2022-11-11T04:38:49.291Z,1009.99
2022-11-11T04:39:49.302Z,1010.05
2022-11-11T04:40:49.258Z,1010.08
2022-11-11T04:42:14.363Z,1009.99
2022-11-11T04:42:51.330Z,1010.01
2022-11-11T04:43:49.251Z,1010.04
2022-11-11T04:44:49.256Z,1010.11
2022-11-11T04:45:49.244Z,1010.06
2022-11-11T04:46:49.236Z,1010.10
2022-11-11T04:47:49.214Z,1010.10
2022-11-11T04:48:49.199Z,1010.02
2022-11-11T04:49:49.240Z,1010.09
2022-11-11T04:50:49.202Z,1010.05
2022-11-11T04:51:49.183Z,1010.04
2022-11-11T04:52:49.171Z,1010.04
2022-11-11T04:53:49.163Z,1009.98
2022-11-11T04:54:49.230Z,1010.06
2022-11-11T04:55:49.150Z,1010.03
2022-11-11T04:56:49.150Z,1009.99
2022-11-11T04:57:49.130Z,1010.08
2022-11-11T04:58:49.209Z,1010.05
2022-11-11T04:59:49.147Z,1010.04
2022-11-11T05:00:49.139Z,1009.94
2022-11-11T05:01:49.108Z,1010.01
2022-11-11T05:02:49.097Z,1010.06
2022-11-11T05:03:49.089Z,1010.09
2022-11-11T05:04:49.118Z,1010.10
2022-11-11T05:05:49.098Z,1010.09
2022-11-11T05:06:49.109Z,1010.05
2022-11-11T05:07:49.059Z,1010.10
2022-11-11T05:08:49.048Z,1010.11
2022-11-11T05:09:49.074Z,1010.15
2022-11-11T05:10:49.031Z,1010.13
2022-11-11T05:11:49.034Z,1010.09
2022-11-11T05:12:49.016Z,1010.15
2022-11-11T05:13:49.000Z,1010.17
2022-11-11T05:14:49.093Z,1010.23
2022-11-11T05:15:48.989Z,1010.15
2022-11-11T05:16:49.011Z,1010.28
2022-11-11T05:17:48.978Z,1010.20
2022-11-11T05:18:48.962Z,1010.24
2022-11-11T05:19:48.982Z,1010.23
2022-11-11T05:20:48.964Z,1010.19
2022-11-11T05:21:48.946Z,1010.25
2022-11-11T05:22:48.924Z,1010.24
2022-11-11T05:23:49.927Z,1010.24
2022-11-11T05:24:48.953Z,1010.26
2022-11-11T05:25:48.924Z,1010.28
2022-11-11T05:26:48.898Z,1010.27
2022-11-11T05:27:48.896Z,1010.31
2022-11-11T05:28:48.915Z,1010.30
2022-11-11T05:29:48.879Z,1010.33
2022-11-11T05:30:48.942Z,1010.34
2022-11-11T05:31:51.473Z,1010.29
2022-11-11T05:32:49.857Z,1010.35
2022-11-11T05:33:48.843Z,1010.35
2022-11-11T05:34:48.874Z,1010.41
2022-11-11T05:35:48.837Z,1010.33
2022-11-11T05:36:48.824Z,1010.35
2022-11-11T05:37:48.814Z,1010.30
2022-11-11T05:38:48.829Z,1010.32
2022-11-11T05:39:48.804Z,1010.28
2022-11-11T05:40:48.793Z,1010.19
2022-11-11T05:41:48.784Z,1010.27
2022-11-11T05:42:54.179Z,1010.22
2022-11-11T05:43:50.792Z,1010.20
2022-11-11T05:44:48.753Z,1010.24
2022-11-11T05:45:48.747Z,1010.17
2022-11-11T05:46:48.822Z,1010.21
2022-11-11T05:47:48.746Z,1010.24
2022-11-11T05:48:48.767Z,1010.22
2022-11-11T05:49:48.729Z,1010.21
2022-11-11T05:50:48.721Z,1010.26
2022-11-11T05:51:48.694Z,1010.19
2022-11-11T05:52:49.693Z,1010.21
2022-11-11T05:53:48.714Z,1010.20
2022-11-11T05:54:48.684Z,1010.20
2022-11-11T05:55:48.682Z,1010.23
2022-11-11T05:56:48.665Z,1010.27
2022-11-11T05:57:48.657Z,1010.19
2022-11-11T05:58:50.706Z,1010.16
2022-11-11T05:59:49.646Z,1010.22
2022-11-11T06:00:48.634Z,1010.21
2022-11-11T06:01:48.731Z,1010.21
2022-11-11T06:02:48.697Z,1010.22
2022-11-11T06:03:48.640Z,1010.18
2022-11-11T06:04:48.605Z,1010.21
2022-11-11T06:05:48.604Z,1010.21
2022-11-11T06:06:48.625Z,1010.29
2022-11-11T06:07:48.589Z,1010.16
2022-11-11T06:08:48.611Z,1010.21
2022-11-11T06:09:48.573Z,1010.25
2022-11-11T06:10:48.565Z,1010.23
2022-11-11T06:11:48.567Z,1010.21
2022-11-11T06:12:48.548Z,1010.19
2022-11-11T06:13:48.580Z,1010.24
2022-11-11T06:14:48.539Z,1010.24
2022-11-11T06:15:48.527Z,1010.26
2022-11-11T06:16:48.523Z,1010.28
2022-11-11T06:17:48.528Z,1010.32
2022-11-11T06:18:48.604Z,1010.35
2022-11-11T06:19:48.500Z,1010.28
2022-11-11T06:20:48.494Z,1010.30
2022-11-11T06:21:48.492Z,1010.28
2022-11-11T06:22:48.473Z,1010.29
2022-11-11T06:23:48.500Z,1010.28
2022-11-11T06:24:48.461Z,1010.32
2022-11-11T06:25:48.461Z,1010.22
2022-11-11T06:26:48.462Z,1010.31
2022-11-11T06:27:48.461Z,1010.34
2022-11-11T06:28:48.431Z,1010.28
2022-11-11T06:29:48.421Z,1010.28
2022-11-11T06:30:50.940Z,1010.33
2022-11-11T06:31:49.412Z,1010.30
2022-11-11T06:32:48.430Z,1010.31
2022-11-11T06:33:48.444Z,1010.35
2022-11-11T06:34:48.500Z,1010.30
2022-11-11T06:35:48.380Z,1010.36
2022-11-11T06:36:48.388Z,1010.37
2022-11-11T06:37:48.389Z,1010.33
2022-11-11T06:38:48.372Z,1010.42
2022-11-11T06:39:48.423Z,1010.39
2022-11-11T06:40:48.339Z,1010.45
2022-11-11T06:41:48.337Z,1010.44
2022-11-11T06:42:48.348Z,1010.45
2022-11-11T06:43:48.315Z,1010.39
2022-11-11T06:44:48.309Z,1010.51
2022-11-11T06:45:48.303Z,1010.40
2022-11-11T06:46:48.296Z,1010.40
2022-11-11T06:47:48.310Z,1010.47
2022-11-11T06:48:48.276Z,1010.45
2022-11-11T06:49:48.272Z,1010.48
2022-11-11T06:50:48.337Z,1010.49
2022-11-11T06:51:48.266Z,1010.52
2022-11-11T06:52:48.288Z,1010.50
2022-11-11T06:53:48.241Z,1010.47
2022-11-11T06:54:48.255Z,1010.58
2022-11-11T06:55:48.223Z,1010.64
2022-11-11T06:56:48.216Z,1010.63
2022-11-11T06:57:48.234Z,1010.67
2022-11-11T06:58:48.199Z,1010.57
2022-11-11T06:59:48.204Z,1010.66
2022-11-11T07:00:48.305Z,1010.66
2022-11-11T07:01:48.262Z,1010.67
2022-11-11T07:02:48.189Z,1010.69
2022-11-11T07:03:48.161Z,1010.60
2022-11-11T07:04:48.145Z,1010.56
2022-11-11T07:05:49.157Z,1010.55
2022-11-11T07:06:48.222Z,1010.60
2022-11-11T07:07:48.156Z,1010.48
2022-11-11T07:08:48.126Z,1010.58
2022-11-11T07:09:48.114Z,1010.59
2022-11-11T07:10:48.103Z,1010.63
2022-11-11T07:11:48.094Z,1010.66
2022-11-11T07:12:48.113Z,1010.65
2022-11-11T07:13:48.080Z,1010.65
2022-11-11T07:14:48.077Z,1010.68
2022-11-11T07:15:48.072Z,1010.67
2022-11-11T07:16:48.060Z,1010.64
2022-11-11T07:17:48.080Z,1010.65
2022-11-11T07:18:48.044Z,1010.55
2022-11-11T07:19:48.082Z,1010.60
2022-11-11T07:20:48.024Z,1010.58
2022-11-11T07:21:48.026Z,1010.66
2022-11-11T07:22:48.115Z,1010.62
2022-11-11T07:23:48.010Z,1010.60
2022-11-11T07:24:48.001Z,1010.68
2022-11-11T07:25:47.998Z,1010.62
2022-11-11T07:26:47.991Z,1010.64
2022-11-11T07:27:48.013Z,1010.63
2022-11-11T07:28:47.968Z,1010.67
2022-11-11T07:29:47.986Z,1010.65
2022-11-11T07:30:47.959Z,1010.60
2022-11-11T07:31:47.974Z,1010.59
2022-11-11T07:32:47.968Z,1010.67
2022-11-11T07:33:47.932Z,1010.59
2022-11-11T07:34:47.920Z,1010.62
2022-11-11T07:35:47.916Z,1010.59
2022-11-11T07:36:47.919Z,1010.66
2022-11-11T07:37:47.921Z,1010.63
2022-11-11T07:38:47.968Z,1010.71
2022-11-11T07:39:47.896Z,1010.70
2022-11-11T07:40:47.876Z,1010.71
2022-11-11T07:41:47.872Z,1010.76
2022-11-11T07:42:47.901Z,1010.84
2022-11-11T07:43:47.859Z,1010.78
2022-11-11T07:44:49.481Z,1010.78
2022-11-11T07:45:48.841Z,1010.76
2022-11-11T07:46:47.860Z,1010.77
2022-11-11T07:47:47.846Z,1010.76
2022-11-11T07:48:47.817Z,1010.76
2022-11-11T07:49:47.813Z,1010.80
2022-11-11T07:50:47.795Z,1010.77
2022-11-11T07:51:47.790Z,1010.95
2022-11-11T07:52:47.811Z,1010.93
2022-11-11T07:53:47.780Z,1010.89
2022-11-11T07:54:47.839Z,1010.92
2022-11-11T07:55:48.762Z,1010.92
2022-11-11T07:56:47.753Z,1010.95
2022-11-11T07:57:47.786Z,1010.97
2022-11-11T07:58:47.739Z,1010.94
2022-11-11T07:59:47.730Z,1010.95
2022-11-11T08:00:47.816Z,1010.94
2022-11-11T08:01:47.714Z,1010.99
2022-11-11T08:02:47.742Z,1011.02
2022-11-11T08:03:47.707Z,1010.97
2022-11-11T08:04:52.361Z,1011.05
2022-11-11T08:05:49.683Z,1011.01
2022-11-11T08:06:47.703Z,1011.04
2022-11-11T08:07:47.675Z,1011.07
2022-11-11T08:08:47.682Z,1011.01
2022-11-11T08:09:47.660Z,1011.04
2022-11-11T08:10:47.721Z,1011.09
2022-11-11T08:11:47.641Z,1011.12
2022-11-11T08:12:47.638Z,1011.12
2022-11-11T08:13:47.645Z,1011.15
2022-11-11T08:14:47.617Z,1011.18
2022-11-11T08:15:47.605Z,1011.20
2022-11-11T08:16:47.606Z,1011.17
2022-11-11T08:17:47.593Z,1011.21
2022-11-11T08:18:47.607Z,1011.23
2022-11-11T08:19:48.588Z,1011.28
2022-11-11T08:20:53.584Z,1011.23
2022-11-11T08:21:49.625Z,1011.21
2022-11-11T08:23:14.810Z,1011.22
2022-11-11T08:24:56.568Z,1011.17
2022-11-11T08:25:02.861Z,1011.22
2022-11-11T08:25:49.610Z,1011.16
2022-11-11T08:26:47.527Z,1011.14
2022-11-11T08:27:47.518Z,1011.16
2022-11-11T08:28:47.533Z,1011.18
2022-11-11T08:29:47.502Z,1011.11
2022-11-11T08:30:47.501Z,1011.14
2022-11-11T08:31:47.487Z,1011.12
2022-11-11T08:33:00.509Z,1011.11
2022-11-11T08:33:48.633Z,1011.11
2022-11-11T08:34:47.479Z,1011.06
2022-11-11T08:35:47.449Z,1011.03
2022-11-11T08:36:47.446Z,1011.01
2022-11-11T08:37:47.442Z,1011.02
2022-11-11T08:38:47.458Z,1010.96
2022-11-11T08:39:47.421Z,1010.95
2022-11-11T08:40:47.406Z,1010.99
2022-11-11T08:41:47.471Z,1010.95
2022-11-11T08:42:47.396Z,1010.97
2022-11-11T08:43:47.417Z,1010.98
2022-11-11T08:44:47.385Z,1010.99
2022-11-11T08:45:47.359Z,1010.99
2022-11-11T08:46:48.388Z,1011.01
2022-11-11T08:47:47.367Z,1011.05
2022-11-11T08:48:47.371Z,1011.01
2022-11-11T08:49:47.340Z,1011.02
2022-11-11T08:50:47.343Z,1011.04
2022-11-11T08:51:47.316Z,1011.08
2022-11-11T08:52:48.318Z,1011.12
2022-11-11T08:53:47.346Z,1011.16
2022-11-11T08:54:48.311Z,1011.15
2022-11-11T08:55:47.319Z,1011.20
2022-11-11T08:56:47.291Z,1011.17
2022-11-11T08:57:47.360Z,1011.18
2022-11-11T08:58:47.317Z,1011.20
2022-11-11T08:59:47.259Z,1011.18
2022-11-11T09:00:47.313Z,1011.17
2022-11-11T09:01:47.252Z,1011.15
2022-11-11T09:02:47.241Z,1011.10
2022-11-11T09:03:47.286Z,1011.19
2022-11-11T09:04:51.534Z,1011.20
2022-11-11T09:05:49.215Z,1011.18
2022-11-11T09:06:47.261Z,1011.24
2022-11-11T09:07:47.212Z,1011.26
2022-11-11T09:08:47.219Z,1011.26
2022-11-11T09:09:47.194Z,1011.27
2022-11-11T09:10:47.191Z,1011.28
2022-11-11T09:11:47.173Z,1011.26
2022-11-11T09:12:47.163Z,1011.27
2022-11-11T09:13:47.262Z,1011.20
2022-11-11T09:14:47.153Z,1011.30
2022-11-11T09:15:47.152Z,1011.32
2022-11-11T09:16:47.130Z,1011.37
2022-11-11T09:17:47.140Z,1011.26
2022-11-11T09:18:47.187Z,1011.31
2022-11-11T09:19:47.108Z,1011.28
2022-11-11T09:20:47.102Z,1011.39
2022-11-11T09:21:47.096Z,1011.36
2022-11-11T09:22:47.103Z,1011.42
2022-11-11T09:23:47.105Z,1011.33
2022-11-11T09:24:47.091Z,1011.38
2022-11-11T09:25:47.073Z,1011.35
2022-11-11T09:26:47.059Z,1011.38
2022-11-11T09:27:47.093Z,1011.34
2022-11-11T09:28:47.075Z,1011.40
2022-11-11T09:29:47.111Z,1011.43
2022-11-11T09:30:47.031Z,1011.44
2022-11-11T09:31:47.189Z,1011.45
2022-11-11T09:32:47.020Z,1011.47
2022-11-11T09:33:47.036Z,1011.46
2022-11-11T09:34:47.033Z,1011.44
2022-11-11T09:35:46.992Z,1011.52
2022-11-11T09:36:46.991Z,1011.45
2022-11-11T09:37:46.973Z,1011.47
2022-11-11T09:38:47.001Z,1011.47
2022-11-11T09:39:46.958Z,1011.46
2022-11-11T09:40:46.950Z,1011.49
2022-11-11T09:41:50.632Z,1011.46
2022-11-11T09:42:47.932Z,1011.47
2022-11-11T09:43:46.924Z,1011.42
2022-11-11T09:44:48.411Z,1011.40
2022-11-11T09:45:47.048Z,1011.38
2022-11-11T09:46:46.915Z,1011.37
2022-11-11T09:47:46.896Z,1011.34
2022-11-11T09:48:46.892Z,1011.31
2022-11-11T09:49:46.911Z,1011.39
2022-11-11T09:50:46.878Z,1011.40
2022-11-11T09:51:46.884Z,1011.35
2022-11-11T09:52:46.862Z,1011.36
2022-11-11T09:53:46.857Z,1011.38
2022-11-11T09:54:46.879Z,1011.40
2022-11-11T09:55:46.845Z,1011.44
2022-11-11T09:56:46.831Z,1011.36
2022-11-11T09:57:46.819Z,1011.32
2022-11-11T09:58:46.811Z,1011.40
2022-11-11T09:59:46.837Z,1011.35
2022-11-11T10:00:46.852Z,1011.42
2022-11-11T10:01:46.870Z,1011.35
2022-11-11T10:02:46.795Z,1011.38
2022-11-11T10:03:46.785Z,1011.36
2022-11-11T10:04:46.795Z,1011.38
2022-11-11T10:05:46.769Z,1011.35
2022-11-11T10:06:46.788Z,1011.32
2022-11-11T10:07:46.744Z,1011.40
2022-11-11T10:08:46.732Z,1011.34
2022-11-11T10:09:46.749Z,1011.40
2022-11-11T10:10:46.721Z,1011.47
2022-11-11T10:11:46.711Z,1011.40
2022-11-11T10:12:46.703Z,1011.49
2022-11-11T10:13:46.713Z,1011.52
2022-11-11T10:14:46.717Z,1011.56
2022-11-11T10:15:46.678Z,1011.54
2022-11-11T10:16:46.670Z,1011.48
2022-11-11T10:17:47.228Z,1011.53
2022-11-11T10:18:46.660Z,1011.56
2022-11-11T10:19:46.678Z,1011.51
2022-11-11T10:20:46.653Z,1011.52
2022-11-11T10:22:11.059Z,1011.56
2022-11-11T10:22:48.619Z,1011.57
2022-11-11T10:23:46.613Z,1011.57
2022-11-11T10:24:50.774Z,1011.49
2022-11-11T10:25:47.607Z,1011.58
2022-11-11T10:26:46.585Z,1011.55
2022-11-11T10:27:46.585Z,1011.47
2022-11-11T10:28:46.574Z,1011.48
2022-11-11T10:29:46.599Z,1011.47
2022-11-11T10:30:47.574Z,1011.48
2022-11-11T10:31:46.547Z,1011.42
2022-11-11T10:32:46.551Z,1011.46
2022-11-11T10:33:46.619Z,1011.47
2022-11-11T10:34:46.561Z,1011.42
2022-11-11T10:35:46.523Z,1011.37
2022-11-11T10:36:46.514Z,1011.39
2022-11-11T10:37:46.508Z,1011.27
2022-11-11T10:38:46.508Z,1011.29
2022-11-11T10:39:46.488Z,1011.35
2022-11-11T10:40:46.504Z,1011.32
2022-11-11T10:41:46.469Z,1011.35
2022-11-11T10:42:46.469Z,1011.32
2022-11-11T10:43:46.461Z,1011.30
2022-11-11T10:44:46.455Z,1011.30
2022-11-11T10:45:46.549Z,1011.35
2022-11-11T10:46:46.439Z,1011.36
2022-11-11T10:47:46.611Z,1011.35
2022-11-11T10:48:47.158Z,1011.38
2022-11-11T10:49:46.496Z,1011.38
2022-11-11T10:50:46.438Z,1011.30
2022-11-11T10:51:46.400Z,1011.32
2022-11-11T10:52:46.400Z,1011.29
2022-11-11T10:53:46.388Z,1011.34
2022-11-11T10:54:46.369Z,1011.18
2022-11-11T10:55:47.430Z,1011.28
2022-11-11T10:56:46.364Z,1011.23
2022-11-11T10:57:46.369Z,1011.27
2022-11-11T10:58:46.351Z,1011.24
2022-11-11T10:59:46.345Z,1011.17
2022-11-11T11:00:46.434Z,1011.12
2022-11-11T11:01:46.391Z,1011.16
2022-11-11T11:02:46.322Z,1011.13
2022-11-11T11:03:46.308Z,1011.12
2022-11-11T11:04:46.309Z,1011.03
2022-11-11T11:05:46.396Z,1011.05
2022-11-11T11:06:46.313Z,1010.94
2022-11-11T11:07:46.958Z,1010.99
2022-11-11T11:08:46.276Z,1010.98
2022-11-11T11:09:46.276Z,1010.94
2022-11-11T11:10:46.285Z,1010.98
2022-11-11T11:11:46.245Z,1011.04
2022-11-11T11:12:46.498Z,1011.02
2022-11-11T11:13:46.244Z,1011.02
2022-11-11T11:14:46.229Z,1010.99
2022-11-11T11:15:46.247Z,1011.01
2022-11-11T11:16:46.226Z,1010.95
2022-11-11T11:17:46.204Z,1010.88
2022-11-11T11:18:46.196Z,1010.89
2022-11-11T11:19:46.186Z,1010.80
2022-11-11T11:20:46.212Z,1010.87
2022-11-11T11:21:46.260Z,1010.79
2022-11-11T11:22:46.179Z,1010.81
2022-11-11T11:23:46.170Z,1010.79
2022-11-11T11:24:46.148Z,1010.83
2022-11-11T11:25:46.179Z,1010.83
2022-11-11T11:26:46.138Z,1010.80
2022-11-11T11:27:46.133Z,1010.86
2022-11-11T11:28:46.124Z,1010.83
2022-11-11T11:29:46.119Z,1010.84
2022-11-11T11:30:46.149Z,1010.78
2022-11-11T11:31:46.100Z,1010.85
2022-11-11T11:32:46.088Z,1010.72
2022-11-11T11:33:46.091Z,1010.88
2022-11-11T11:34:46.635Z,1010.78
2022-11-11T11:35:46.090Z,1010.82
2022-11-11T11:36:46.064Z,1010.78
2022-11-11T11:37:46.137Z,1010.79
2022-11-11T11:38:46.047Z,1010.80
2022-11-11T11:39:46.038Z,1010.80
2022-11-11T11:40:46.062Z,1010.78
2022-11-11T11:41:46.061Z,1010.80
2022-11-11T11:42:46.027Z,1010.77
2022-11-11T11:43:46.043Z,1010.82
2022-11-11T11:44:46.005Z,1010.82
2022-11-11T11:45:46.014Z,1010.82
2022-11-11T11:46:47.002Z,1010.81
2022-11-11T11:47:58.421Z,1010.86
2022-11-11T11:48:48.344Z,1010.82
2022-11-11T11:49:45.956Z,1010.82
2022-11-11T11:50:45.959Z,1010.88
2022-11-11T11:51:45.969Z,1010.87
2022-11-11T11:52:45.940Z,1010.84
2022-11-11T11:53:46.007Z,1010.86
2022-11-11T11:54:45.910Z,1010.84
2022-11-11T11:55:45.922Z,1010.73
2022-11-11T11:56:45.933Z,1010.81
2022-11-11T11:57:45.899Z,1010.75
2022-11-11T11:58:45.894Z,1010.87
2022-11-11T11:59:45.888Z,1010.81
2022-11-11T12:00:45.874Z,1010.80
2022-11-11T12:01:45.918Z,1010.84
2022-11-11T12:02:45.929Z,1010.86
2022-11-11T12:03:45.845Z,1010.88
2022-11-11T12:04:45.845Z,1010.85
2022-11-11T12:05:45.864Z,1010.92
2022-11-11T12:06:45.909Z,1010.90